sensor_id;sensor_type;location;lat;lon;timestamp;pressure;altitude;pressure_sealevel;temperature;humidity
26489;BME280;14169;43.684;10.484;2022-08-16T00:01:18;100881.75;;;22.31;100.00
26489;BME280;14169;43.684;10.484;2022-08-16T00:03:44;100871.38;;;22.39;100.00
26489;BME280;14169;43.684;10.484;2022-08-16T00:06:10;100865.81;;;22.42;100.00
26489;BME280;14169;43.684;10.484;2022-08-16T00:08:36;100860.00;;;22.48;100.00
26489;BME280;14169;43.684;10.484;2022-08-16T00:11:04;100867.63;;;22.52;100.00
26489;BME280;14169;43.684;10.484;2022-08-16T00:13:30;100868.09;;;22.57;100.00
26489;BME280;14169;43.684;10.484;2022-08-16T00:15:58;100871.59;;;22.58;100.00
26489;BME280;14169;43.684;10.484;2022-08-16T00:18:23;100866.91;;;22.61;100.00
26489;BME280;14169;43.684;10.484;2022-08-16T00:20:49;100861.59;;;22.61;100.00
26489;BME280;14169;43.684;10.484;2022-08-16T00:23:14;100868.84;;;22.59;100.00
26489;BME280;14169;43.684;10.484;2022-08-16T00:25:40;100871.84;;;22.55;100.00
26489;BME280;14169;43.684;10.484;2022-08-16T00:28:06;100860.72;;;22.50;100.00
26489;BME280;14169;43.684;10.484;2022-08-16T00:30:32;100858.47;;;22.45;100.00
26489;BME280;14169;43.684;10.484;2022-08-16T00:32:58;100848.06;;;22.42;100.00
26489;BME280;14169;43.684;10.484;2022-08-16T00:35:31;100861.34;;;22.42;100.00
26489;BME280;14169;43.684;10.484;2022-08-16T00:37:57;100844.69;;;22.40;100.00
26489;BME280;14169;43.684;10.484;2022-08-16T00:40:32;100849.53;;;22.35;100.00
26489;BME280;14169;43.684;10.484;2022-08-16T00:42:58;100849.63;;;22.34;100.00
26489;BME280;14169;43.684;10.484;2022-08-16T00:48:21;100841.78;;;22.32;100.00
26489;BME280;14169;43.684;10.484;2022-08-16T00:50:47;100841.44;;;22.37;100.00
26489;BME280;14169;43.684;10.484;2022-08-16T00:53:14;100835.78;;;22.41;100.00
26489;BME280;14169;43.684;10.484;2022-08-16T00:55:45;100843.75;;;22.41;100.00
26489;BME280;14169;43.684;10.484;2022-08-16T00:58:13;100845.03;;;22.36;100.00
26489;BME280;14169;43.684;10.484;2022-08-16T01:00:39;100848.44;;;22.27;100.00
26489;BME280;14169;43.684;10.484;2022-08-16T01:03:07;100840.41;;;22.16;100.00
26489;BME280;14169;43.684;10.484;2022-08-16T01:05:34;100838.03;;;22.02;100.00
26489;BME280;14169;43.684;10.484;2022-08-16T01:08:00;100833.66;;;21.90;100.00
26489;BME280;14169;43.684;10.484;2022-08-16T01:10:29;100839.91;;;21.77;100.00
26489;BME280;14169;43.684;10.484;2022-08-16T01:12:55;100840.47;;;21.70;100.00
26489;BME280;14169;43.684;10.484;2022-08-16T01:15:21;100841.59;;;21.67;100.00
26489;BME280;14169;43.684;10.484;2022-08-16T01:17:48;100839.75;;;21.68;100.00
26489;BME280;14169;43.684;10.484;2022-08-16T01:20:14;100838.19;;;21.65;100.00
26489;BME280;14169;43.684;10.484;2022-08-16T01:22:49;100843.72;;;21.62;100.00
26489;BME280;14169;43.684;10.484;2022-08-16T01:25:20;100847.22;;;21.63;100.00
26489;BME280;14169;43.684;10.484;2022-08-16T01:27:54;100846.38;;;21.62;100.00
26489;BME280;14169;43.684;10.484;2022-08-16T01:30:25;100851.47;;;21.65;100.00
26489;BME280;14169;43.684;10.484;2022-08-16T01:32:53;100850.59;;;21.65;100.00
26489;BME280;14169;43.684;10.484;2022-08-16T01:40:43;100848.69;;;21.78;100.00
26489;BME280;14169;43.684;10.484;2022-08-16T01:43:08;100852.00;;;21.81;100.00
26489;BME280;14169;43.684;10.484;2022-08-16T01:45:34;100838.47;;;21.84;100.00
26489;BME280;14169;43.684;10.484;2022-08-16T01:47:59;100831.03;;;21.90;100.00
26489;BME280;14169;43.684;10.484;2022-08-16T01:50:25;100829.31;;;21.88;100.00
26489;BME280;14169;43.684;10.484;2022-08-16T01:52:51;100832.81;;;21.89;100.00
26489;BME280;14169;43.684;10.484;2022-08-16T01:55:20;100833.75;;;21.88;100.00
26489;BME280;14169;43.684;10.484;2022-08-16T01:57:46;100834.97;;;21.84;100.00
26489;BME280;14169;43.684;10.484;2022-08-16T02:00:12;100832.69;;;21.79;100.00
26489;BME280;14169;43.684;10.484;2022-08-16T02:02:38;100835.81;;;21.73;100.00
26489;BME280;14169;43.684;10.484;2022-08-16T02:05:04;100834.34;;;21.69;100.00
26489;BME280;14169;43.684;10.484;2022-08-16T02:07:31;100837.56;;;21.62;100.00
26489;BME280;14169;43.684;10.484;2022-08-16T02:09:57;100846.84;;;21.56;100.00
26489;BME280;14169;43.684;10.484;2022-08-16T02:12:23;100843.72;;;21.51;100.00
26489;BME280;14169;43.684;10.484;2022-08-16T02:14:49;100838.84;;;21.45;100.00
26489;BME280;14169;43.684;10.484;2022-08-16T02:17:15;100841.69;;;21.42;100.00
26489;BME280;14169;43.684;10.484;2022-08-16T02:19:41;100839.03;;;21.42;100.00
26489;BME280;14169;43.684;10.484;2022-08-16T02:22:12;100834.84;;;21.40;100.00
26489;BME280;14169;43.684;10.484;2022-08-16T02:24:40;100839.16;;;21.41;100.00
26489;BME280;14169;43.684;10.484;2022-08-16T02:27:05;100830.38;;;21.40;100.00
26489;BME280;14169;43.684;10.484;2022-08-16T02:29:31;100824.34;;;21.38;100.00
26489;BME280;14169;43.684;10.484;2022-08-16T02:31:57;100819.28;;;21.35;100.00
26489;BME280;14169;43.684;10.484;2022-08-16T02:34:23;100822.78;;;21.36;100.00
26489;BME280;14169;43.684;10.484;2022-08-16T02:36:49;100829.63;;;21.38;100.00
26489;BME280;14169;43.684;10.484;2022-08-16T02:39:15;100834.13;;;21.38;100.00
26489;BME280;14169;43.684;10.484;2022-08-16T02:41:43;100827.97;;;21.37;100.00
26489;BME280;14169;43.684;10.484;2022-08-16T02:44:10;100837.72;;;21.37;100.00
26489;BME280;14169;43.684;10.484;2022-08-16T02:46:37;100840.25;;;21.38;100.00
26489;BME280;14169;43.684;10.484;2022-08-16T02:49:04;100847.13;;;21.41;100.00
26489;BME280;14169;43.684;10.484;2022-08-16T02:51:31;100843.63;;;21.40;100.00
26489;BME280;14169;43.684;10.484;2022-08-16T02:53:57;100854.47;;;21.37;100.00
26489;BME280;14169;43.684;10.484;2022-08-16T02:56:22;100862.03;;;21.31;100.00
26489;BME280;14169;43.684;10.484;2022-08-16T02:58:50;100854.53;;;21.25;100.00
26489;BME280;14169;43.684;10.484;2022-08-16T03:01:21;100857.63;;;21.19;100.00
26489;BME280;14169;43.684;10.484;2022-08-16T03:03:48;100867.09;;;21.10;100.00
26489;BME280;14169;43.684;10.484;2022-08-16T03:06:14;100858.03;;;21.01;100.00
26489;BME280;14169;43.684;10.484;2022-08-16T03:08:43;100861.94;;;20.96;100.00
26489;BME280;14169;43.684;10.484;2022-08-16T03:11:09;100856.16;;;20.91;100.00
26489;BME280;14169;43.684;10.484;2022-08-16T03:13:36;100858.06;;;20.89;100.00
26489;BME280;14169;43.684;10.484;2022-08-16T03:16:02;100851.50;;;20.82;100.00
26489;BME280;14169;43.684;10.484;2022-08-16T03:18:28;100843.06;;;20.77;100.00
26489;BME280;14169;43.684;10.484;2022-08-16T03:20:53;100844.53;;;20.68;100.00
26489;BME280;14169;43.684;10.484;2022-08-16T03:23:20;100850.81;;;20.67;100.00
26489;BME280;14169;43.684;10.484;2022-08-16T03:25:46;100865.63;;;20.70;100.00
26489;BME280;14169;43.684;10.484;2022-08-16T03:28:11;100869.09;;;20.70;100.00
26489;BME280;14169;43.684;10.484;2022-08-16T03:30:37;100873.50;;;20.71;100.00
26489;BME280;14169;43.684;10.484;2022-08-16T03:33:03;100861.28;;;20.69;100.00
26489;BME280;14169;43.684;10.484;2022-08-16T03:35:31;100870.19;;;20.68;100.00
26489;BME280;14169;43.684;10.484;2022-08-16T03:37:59;100877.94;;;20.71;100.00
26489;BME280;14169;43.684;10.484;2022-08-16T03:40:26;100879.69;;;20.70;100.00
26489;BME280;14169;43.684;10.484;2022-08-16T03:42:52;100868.09;;;20.73;100.00
26489;BME280;14169;43.684;10.484;2022-08-16T03:45:18;100870.63;;;20.74;100.00
26489;BME280;14169;43.684;10.484;2022-08-16T03:47:45;100867.97;;;20.74;100.00
26489;BME280;14169;43.684;10.484;2022-08-16T03:50:11;100876.88;;;20.73;100.00
26489;BME280;14169;43.684;10.484;2022-08-16T03:52:39;100875.19;;;20.72;100.00
26489;BME280;14169;43.684;10.484;2022-08-16T03:55:05;100872.19;;;20.77;100.00
26489;BME280;14169;43.684;10.484;2022-08-16T03:57:30;100867.66;;;20.79;100.00
26489;BME280;14169;43.684;10.484;2022-08-16T03:59:56;100871.25;;;20.78;100.00
26489;BME280;14169;43.684;10.484;2022-08-16T04:02:22;100871.25;;;20.78;100.00
26489;BME280;14169;43.684;10.484;2022-08-16T04:04:48;100872.09;;;20.78;100.00
26489;BME280;14169;43.684;10.484;2022-08-16T04:07:14;100880.75;;;20.80;100.00
26489;BME280;14169;43.684;10.484;2022-08-16T04:09:40;100882.69;;;20.78;100.00
26489;BME280;14169;43.684;10.484;2022-08-16T04:12:08;100886.50;;;20.74;100.00
26489;BME280;14169;43.684;10.484;2022-08-16T04:14:35;100877.94;;;20.71;100.00
26489;BME280;14169;43.684;10.484;2022-08-16T04:17:01;100889.66;;;20.67;100.00
26489;BME280;14169;43.684;10.484;2022-08-16T04:19:27;100891.69;;;20.63;100.00
26489;BME280;14169;43.684;10.484;2022-08-16T04:21:53;100880.50;;;20.60;100.00
26489;BME280;14169;43.684;10.484;2022-08-16T04:24:19;100874.53;;;20.56;100.00
26489;BME280;14169;43.684;10.484;2022-08-16T04:26:45;100871.16;;;20.54;100.00
26489;BME280;14169;43.684;10.484;2022-08-16T04:29:10;100866.22;;;20.50;100.00
26489;BME280;14169;43.684;10.484;2022-08-16T04:31:36;100873.19;;;20.51;100.00
26489;BME280;14169;43.684;10.484;2022-08-16T04:34:02;100871.59;;;20.48;100.00
26489;BME280;14169;43.684;10.484;2022-08-16T04:36:28;100871.59;;;20.48;100.00
26489;BME280;14169;43.684;10.484;2022-08-16T04:38:54;100870.78;;;20.48;100.00
26489;BME280;14169;43.684;10.484;2022-08-16T04:41:20;100863.56;;;20.50;100.00
26489;BME280;14169;43.684;10.484;2022-08-16T04:43:46;100877.63;;;20.50;100.00
26489;BME280;14169;43.684;10.484;2022-08-16T04:46:11;100883.56;;;20.54;100.00
26489;BME280;14169;43.684;10.484;2022-08-16T04:48:39;100877.19;;;20.56;100.00
26489;BME280;14169;43.684;10.484;2022-08-16T04:51:06;100881.53;;;20.57;100.00
26489;BME280;14169;43.684;10.484;2022-08-16T04:53:31;100885.56;;;20.63;100.00
26489;BME280;14169;43.684;10.484;2022-08-16T04:55:57;100888.81;;;20.66;100.00
26489;BME280;14169;43.684;10.484;2022-08-16T04:58:22;100893.06;;;20.69;100.00
26489;BME280;14169;43.684;10.484;2022-08-16T05:00:48;100887.59;;;20.72;100.00
26489;BME280;14169;43.684;10.484;2022-08-16T05:03:13;100890.00;;;20.75;100.00
26489;BME280;14169;43.684;10.484;2022-08-16T05:05:39;100884.59;;;20.76;100.00
26489;BME280;14169;43.684;10.484;2022-08-16T05:08:06;100889.56;;;20.81;100.00
26489;BME280;14169;43.684;10.484;2022-08-16T05:10:32;100898.13;;;20.84;100.00
26489;BME280;14169;43.684;10.484;2022-08-16T05:12:58;100901.19;;;20.91;100.00
26489;BME280;14169;43.684;10.484;2022-08-16T05:15:24;100901.81;;;20.94;100.00
26489;BME280;14169;43.684;10.484;2022-08-16T05:17:50;100907.63;;;20.99;100.00
26489;BME280;14169;43.684;10.484;2022-08-16T05:20:15;100911.31;;;21.10;100.00
26489;BME280;14169;43.684;10.484;2022-08-16T05:22:40;100908.22;;;21.16;100.00
26489;BME280;14169;43.684;10.484;2022-08-16T05:25:07;100910.41;;;21.22;100.00
26489;BME280;14169;43.684;10.484;2022-08-16T05:27:33;100911.03;;;21.25;100.00
26489;BME280;14169;43.684;10.484;2022-08-16T05:29:59;100904.16;;;21.23;100.00
26489;BME280;14169;43.684;10.484;2022-08-16T05:32:24;100907.41;;;21.26;100.00
26489;BME280;14169;43.684;10.484;2022-08-16T05:34:49;100918.66;;;21.30;100.00
26489;BME280;14169;43.684;10.484;2022-08-16T05:37:15;100915.66;;;21.34;100.00
26489;BME280;14169;43.684;10.484;2022-08-16T05:39:40;100929.31;;;21.41;100.00
26489;BME280;14169;43.684;10.484;2022-08-16T05:42:06;100932.25;;;21.49;100.00
26489;BME280;14169;43.684;10.484;2022-08-16T05:44:32;100933.16;;;21.60;100.00
26489;BME280;14169;43.684;10.484;2022-08-16T05:46:59;100938.72;;;21.68;100.00
26489;BME280;14169;43.684;10.484;2022-08-16T05:49:26;100936.75;;;21.83;100.00
26489;BME280;14169;43.684;10.484;2022-08-16T05:51:52;100935.44;;;21.88;100.00
26489;BME280;14169;43.684;10.484;2022-08-16T05:54:22;100940.06;;;21.98;100.00
26489;BME280;14169;43.684;10.484;2022-08-16T05:56:48;100946.34;;;22.08;100.00
26489;BME280;14169;43.684;10.484;2022-08-16T05:59:15;100950.81;;;22.18;100.00
26489;BME280;14169;43.684;10.484;2022-08-16T06:01:42;100957.28;;;22.27;100.00
26489;BME280;14169;43.684;10.484;2022-08-16T06:04:12;100952.09;;;22.36;100.00
26489;BME280;14169;43.684;10.484;2022-08-16T06:06:39;100954.16;;;22.44;100.00
26489;BME280;14169;43.684;10.484;2022-08-16T06:09:04;100960.56;;;22.52;100.00
26489;BME280;14169;43.684;10.484;2022-08-16T06:11:30;100957.19;;;22.61;100.00
26489;BME280;14169;43.684;10.484;2022-08-16T06:13:56;100961.91;;;22.69;100.00
26489;BME280;14169;43.684;10.484;2022-08-16T06:16:21;100958.78;;;22.75;100.00
26489;BME280;14169;43.684;10.484;2022-08-16T06:18:46;100958.03;;;22.84;100.00
26489;BME280;14169;43.684;10.484;2022-08-16T06:21:13;100960.47;;;22.87;100.00
26489;BME280;14169;43.684;10.484;2022-08-16T06:23:39;100965.19;;;22.95;100.00
26489;BME280;14169;43.684;10.484;2022-08-16T06:26:05;100963.72;;;23.02;100.00
26489;BME280;14169;43.684;10.484;2022-08-16T06:28:31;100960.81;;;23.05;100.00
26489;BME280;14169;43.684;10.484;2022-08-16T06:30:57;100961.06;;;23.02;100.00
26489;BME280;14169;43.684;10.484;2022-08-16T06:33:23;100960.69;;;23.06;100.00
26489;BME280;14169;43.684;10.484;2022-08-16T06:35:52;100959.56;;;23.20;100.00
26489;BME280;14169;43.684;10.484;2022-08-16T06:38:18;100963.09;;;23.31;100.00
26489;BME280;14169;43.684;10.484;2022-08-16T06:40:43;100961.69;;;23.48;100.00
26489;BME280;14169;43.684;10.484;2022-08-16T06:43:09;100964.06;;;23.62;100.00
26489;BME280;14169;43.684;10.484;2022-08-16T06:45:35;100957.38;;;23.79;100.00
26489;BME280;14169;43.684;10.484;2022-08-16T06:48:05;100967.59;;;23.94;100.00
26489;BME280;14169;43.684;10.484;2022-08-16T06:50:31;100969.94;;;24.08;100.00
26489;BME280;14169;43.684;10.484;2022-08-16T06:52:58;100968.19;;;24.18;100.00
26489;BME280;14169;43.684;10.484;2022-08-16T06:55:23;100966.41;;;24.28;100.00
26489;BME280;14169;43.684;10.484;2022-08-16T06:57:51;100963.97;;;24.37;100.00
26489;BME280;14169;43.684;10.484;2022-08-16T07:00:17;100963.00;;;24.38;100.00
26489;BME280;14169;43.684;10.484;2022-08-16T07:02:43;100963.84;;;24.38;100.00
26489;BME280;14169;43.684;10.484;2022-08-16T07:05:10;100958.38;;;24.40;100.00
26489;BME280;14169;43.684;10.484;2022-08-16T07:07:36;100954.75;;;24.41;100.00
26489;BME280;14169;43.684;10.484;2022-08-16T07:10:03;100954.94;;;24.49;100.00
26489;BME280;14169;43.684;10.484;2022-08-16T07:12:29;100948.63;;;24.50;100.00
26489;BME280;14169;43.684;10.484;2022-08-16T07:14:55;100942.75;;;24.56;100.00
26489;BME280;14169;43.684;10.484;2022-08-16T07:17:21;100933.97;;;24.65;100.00
26489;BME280;14169;43.684;10.484;2022-08-16T07:19:47;100931.59;;;24.71;100.00
26489;BME280;14169;43.684;10.484;2022-08-16T07:22:14;100930.25;;;24.77;100.00
26489;BME280;14169;43.684;10.484;2022-08-16T07:24:40;100932.78;;;24.88;100.00
26489;BME280;14169;43.684;10.484;2022-08-16T07:27:05;100939.75;;;25.09;100.00
26489;BME280;14169;43.684;10.484;2022-08-16T07:29:30;100935.03;;;25.23;100.00
26489;BME280;14169;43.684;10.484;2022-08-16T07:31:56;100938.97;;;25.28;100.00
26489;BME280;14169;43.684;10.484;2022-08-16T07:34:21;100936.44;;;25.36;100.00
26489;BME280;14169;43.684;10.484;2022-08-16T07:36:47;100944.19;;;25.49;100.00
26489;BME280;14169;43.684;10.484;2022-08-16T07:39:13;100937.03;;;25.59;100.00
26489;BME280;14169;43.684;10.484;2022-08-16T07:41:39;100945.34;;;25.65;100.00
26489;BME280;14169;43.684;10.484;2022-08-16T07:44:05;100948.56;;;25.78;100.00
26489;BME280;14169;43.684;10.484;2022-08-16T07:46:30;100945.31;;;25.94;100.00
26489;BME280;14169;43.684;10.484;2022-08-16T07:48:56;100956.13;;;26.02;100.00
26489;BME280;14169;43.684;10.484;2022-08-16T07:51:21;100950.78;;;26.12;100.00
26489;BME280;14169;43.684;10.484;2022-08-16T07:53:47;100960.03;;;26.17;100.00
26489;BME280;14169;43.684;10.484;2022-08-16T07:56:17;100959.63;;;26.12;100.00
26489;BME280;14169;43.684;10.484;2022-08-16T07:58:43;100956.28;;;26.10;100.00
26489;BME280;14169;43.684;10.484;2022-08-16T08:01:08;100951.47;;;26.14;100.00
26489;BME280;14169;43.684;10.484;2022-08-16T08:03:34;100961.31;;;26.23;100.00
26489;BME280;14169;43.684;10.484;2022-08-16T08:06:01;100959.78;;;26.20;100.00
26489;BME280;14169;43.684;10.484;2022-08-16T08:08:27;100967.78;;;26.20;100.00
26489;BME280;14169;43.684;10.484;2022-08-16T08:10:54;100970.63;;;26.28;100.00
26489;BME280;14169;43.684;10.484;2022-08-16T08:13:20;100973.56;;;26.35;100.00
26489;BME280;14169;43.684;10.484;2022-08-16T08:15:45;100975.34;;;26.44;100.00
26489;BME280;14169;43.684;10.484;2022-08-16T08:18:12;100978.28;;;26.50;100.00
26489;BME280;14169;43.684;10.484;2022-08-16T08:20:38;100983.75;;;26.58;100.00
26489;BME280;14169;43.684;10.484;2022-08-16T08:23:11;100987.25;;;26.68;100.00
26489;BME280;14169;43.684;10.484;2022-08-16T08:25:38;100991.16;;;26.74;100.00
26489;BME280;14169;43.684;10.484;2022-08-16T08:28:04;100988.44;;;26.83;100.00
26489;BME280;14169;43.684;10.484;2022-08-16T08:30:30;100993.78;;;26.93;100.00
26489;BME280;14169;43.684;10.484;2022-08-16T08:32:56;100992.47;;;27.07;100.00
26489;BME280;14169;43.684;10.484;2022-08-16T08:35:21;100993.03;;;27.28;100.00
26489;BME280;14169;43.684;10.484;2022-08-16T08:37:47;101002.03;;;27.27;100.00
26489;BME280;14169;43.684;10.484;2022-08-16T08:40:12;100993.31;;;27.25;100.00
26489;BME280;14169;43.684;10.484;2022-08-16T08:42:38;100997.84;;;27.24;100.00
26489;BME280;14169;43.684;10.484;2022-08-16T08:45:09;101002.59;;;27.30;100.00
26489;BME280;14169;43.684;10.484;2022-08-16T08:47:36;100999.31;;;27.46;100.00
26489;BME280;14169;43.684;10.484;2022-08-16T08:50:04;100993.09;;;27.63;100.00
26489;BME280;14169;43.684;10.484;2022-08-16T08:52:29;100998.16;;;27.84;100.00
26489;BME280;14169;43.684;10.484;2022-08-16T08:54:55;100999.16;;;28.00;100.00
26489;BME280;14169;43.684;10.484;2022-08-16T08:57:21;100999.63;;;28.13;100.00
26489;BME280;14169;43.684;10.484;2022-08-16T08:59:46;100993.72;;;28.27;100.00
26489;BME280;14169;43.684;10.484;2022-08-16T09:02:13;101005.22;;;28.45;100.00
26489;BME280;14169;43.684;10.484;2022-08-16T09:04:40;101006.31;;;28.61;100.00
26489;BME280;14169;43.684;10.484;2022-08-16T09:07:06;101007.16;;;28.61;100.00
26489;BME280;14169;43.684;10.484;2022-08-16T09:09:31;101002.56;;;28.71;100.00
26489;BME280;14169;43.684;10.484;2022-08-16T09:11:57;101001.09;;;28.77;100.00
26489;BME280;14169;43.684;10.484;2022-08-16T09:14:23;101001.72;;;28.96;100.00
26489;BME280;14169;43.684;10.484;2022-08-16T09:16:49;101007.13;;;29.04;100.00
26489;BME280;14169;43.684;10.484;2022-08-16T09:19:16;101001.78;;;29.12;100.00
26489;BME280;14169;43.684;10.484;2022-08-16T09:21:41;101006.22;;;29.29;100.00
26489;BME280;14169;43.684;10.484;2022-08-16T09:24:07;101008.78;;;29.47;100.00
26489;BME280;14169;43.684;10.484;2022-08-16T09:26:33;101010.50;;;29.48;100.00
26489;BME280;14169;43.684;10.484;2022-08-16T09:28:59;101011.88;;;29.68;98.93
26489;BME280;14169;43.684;10.484;2022-08-16T09:31:24;101017.81;;;29.88;96.50
26489;BME280;14169;43.684;10.484;2022-08-16T09:33:50;101013.25;;;29.96;95.38
26489;BME280;14169;43.684;10.484;2022-08-16T09:36:17;101015.44;;;30.09;94.80
26489;BME280;14169;43.684;10.484;2022-08-16T09:38:42;101006.72;;;30.23;95.42
26489;BME280;14169;43.684;10.484;2022-08-16T09:41:09;101001.84;;;30.51;96.18
26489;BME280;14169;43.684;10.484;2022-08-16T09:43:35;101000.44;;;30.71;94.26
26489;BME280;14169;43.684;10.484;2022-08-16T09:46:03;100995.00;;;30.95;96.38
26489;BME280;14169;43.684;10.484;2022-08-16T09:48:32;100995.53;;;31.29;96.92
26489;BME280;14169;43.684;10.484;2022-08-16T09:50:57;100987.34;;;31.53;94.08
26489;BME280;14169;43.684;10.484;2022-08-16T09:53:23;100998.41;;;31.58;97.99
26489;BME280;14169;43.684;10.484;2022-08-16T09:55:53;100989.56;;;31.72;100.00
26489;BME280;14169;43.684;10.484;2022-08-16T09:58:21;100991.97;;;31.90;100.00
26489;BME280;14169;43.684;10.484;2022-08-16T10:00:50;100991.97;;;32.13;100.00
26489;BME280;14169;43.684;10.484;2022-08-16T10:03:17;101006.25;;;32.36;99.37
26489;BME280;14169;43.684;10.484;2022-08-16T10:05:43;101005.09;;;32.53;99.02
26489;BME280;14169;43.684;10.484;2022-08-16T10:08:08;101008.00;;;32.81;96.32
26489;BME280;14169;43.684;10.484;2022-08-16T10:10:35;101001.84;;;32.72;93.36
26489;BME280;14169;43.684;10.484;2022-08-16T10:13:01;101004.28;;;32.82;94.21
26489;BME280;14169;43.684;10.484;2022-08-16T10:15:37;101008.78;;;32.89;91.72
26489;BME280;14169;43.684;10.484;2022-08-16T10:18:04;101012.47;;;32.59;96.02
26489;BME280;14169;43.684;10.484;2022-08-16T10:20:37;101015.66;;;32.40;99.43
26489;BME280;14169;43.684;10.484;2022-08-16T10:23:03;101012.22;;;32.09;100.00
26489;BME280;14169;43.684;10.484;2022-08-16T10:25:29;101012.75;;;32.27;100.00
26489;BME280;14169;43.684;10.484;2022-08-16T10:27:55;101012.72;;;32.64;100.00
26489;BME280;14169;43.684;10.484;2022-08-16T10:30:20;101013.34;;;32.89;95.90
26489;BME280;14169;43.684;10.484;2022-08-16T10:32:46;101017.13;;;32.65;92.63
26489;BME280;14169;43.684;10.484;2022-08-16T10:35:11;101016.16;;;32.43;94.66
26489;BME280;14169;43.684;10.484;2022-08-16T10:37:37;101018.50;;;32.61;92.52
26489;BME280;14169;43.684;10.484;2022-08-16T10:40:07;101016.97;;;32.96;88.94
26489;BME280;14169;43.684;10.484;2022-08-16T10:42:33;101017.78;;;33.25;86.56
26489;BME280;14169;43.684;10.484;2022-08-16T10:44:59;101006.56;;;33.58;85.09
26489;BME280;14169;43.684;10.484;2022-08-16T10:47:24;101014.81;;;33.92;82.85
26489;BME280;14169;43.684;10.484;2022-08-16T10:49:50;101014.09;;;34.04;79.48
26489;BME280;14169;43.684;10.484;2022-08-16T10:52:16;101019.72;;;34.03;79.09
26489;BME280;14169;43.684;10.484;2022-08-16T10:54:41;101015.44;;;33.73;80.89
26489;BME280;14169;43.684;10.484;2022-08-16T10:57:06;101011.84;;;33.15;86.59
26489;BME280;14169;43.684;10.484;2022-08-16T10:59:33;101009.75;;;33.68;84.81
26489;BME280;14169;43.684;10.484;2022-08-16T11:01:59;101005.41;;;34.09;78.04
26489;BME280;14169;43.684;10.484;2022-08-16T11:04:25;101010.34;;;33.63;78.28
26489;BME280;14169;43.684;10.484;2022-08-16T11:06:52;101007.69;;;33.70;79.24
26489;BME280;14169;43.684;10.484;2022-08-16T11:09:19;101010.31;;;33.99;77.44
26489;BME280;14169;43.684;10.484;2022-08-16T11:11:44;101000.03;;;34.37;74.67
26489;BME280;14169;43.684;10.484;2022-08-16T11:14:10;100993.91;;;34.56;72.71
26489;BME280;14169;43.684;10.484;2022-08-16T11:16:36;101001.94;;;34.70;70.75
26489;BME280;14169;43.684;10.484;2022-08-16T11:19:02;100999.28;;;35.18;70.69
26489;BME280;14169;43.684;10.484;2022-08-16T11:21:28;101000.09;;;35.59;65.86
26489;BME280;14169;43.684;10.484;2022-08-16T11:23:54;101002.03;;;35.78;64.33
26489;BME280;14169;43.684;10.484;2022-08-16T11:26:20;101001.41;;;36.02;63.36
26489;BME280;14169;43.684;10.484;2022-08-16T11:28:46;100999.66;;;35.62;59.75
26489;BME280;14169;43.684;10.484;2022-08-16T11:31:15;101002.81;;;35.59;62.82
26489;BME280;14169;43.684;10.484;2022-08-16T11:33:40;100996.19;;;35.94;60.50
26489;BME280;14169;43.684;10.484;2022-08-16T11:36:06;101005.81;;;36.36;58.01
26489;BME280;14169;43.684;10.484;2022-08-16T11:38:32;101000.41;;;36.29;58.28
26489;BME280;14169;43.684;10.484;2022-08-16T11:40:58;100993.91;;;36.43;57.81
26489;BME280;14169;43.684;10.484;2022-08-16T11:43:31;100994.56;;;36.39;57.92
26489;BME280;14169;43.684;10.484;2022-08-16T11:46:00;100996.84;;;36.35;57.91
26489;BME280;14169;43.684;10.484;2022-08-16T11:48:28;100982.22;;;36.10;58.52
26489;BME280;14169;43.684;10.484;2022-08-16T11:50:54;100984.72;;;36.18;59.14
26489;BME280;14169;43.684;10.484;2022-08-16T11:53:21;100994.13;;;36.48;59.44
26489;BME280;14169;43.684;10.484;2022-08-16T11:55:49;101002.69;;;36.52;60.80
26489;BME280;14169;43.684;10.484;2022-08-16T11:58:16;100986.59;;;36.50;58.72
26489;BME280;14169;43.684;10.484;2022-08-16T12:00:43;100994.78;;;36.31;62.47
26489;BME280;14169;43.684;10.484;2022-08-16T12:03:10;100991.44;;;36.22;64.22
26489;BME280;14169;43.684;10.484;2022-08-16T12:05:37;100991.00;;;36.12;63.91
26489;BME280;14169;43.684;10.484;2022-08-16T12:08:04;100984.53;;;36.07;65.41
26489;BME280;14169;43.684;10.484;2022-08-16T12:10:31;101001.00;;;35.79;67.86
26489;BME280;14169;43.684;10.484;2022-08-16T12:12:57;100999.06;;;35.66;69.66
26489;BME280;14169;43.684;10.484;2022-08-16T12:15:22;100997.66;;;35.77;68.72
26489;BME280;14169;43.684;10.484;2022-08-16T12:17:52;100997.38;;;35.65;67.61
26489;BME280;14169;43.684;10.484;2022-08-16T12:20:21;100984.97;;;36.23;65.59
26489;BME280;14169;43.684;10.484;2022-08-16T12:22:48;101001.59;;;36.66;61.36
26489;BME280;14169;43.684;10.484;2022-08-16T12:25:16;100996.00;;;36.61;58.90
26489;BME280;14169;43.684;10.484;2022-08-16T12:27:43;101000.19;;;36.50;58.89
26489;BME280;14169;43.684;10.484;2022-08-16T12:30:12;101004.78;;;36.11;59.75
26489;BME280;14169;43.684;10.484;2022-08-16T12:32:39;100999.75;;;35.88;60.39
26489;BME280;14169;43.684;10.484;2022-08-16T12:35:06;100997.03;;;35.88;59.69
26489;BME280;14169;43.684;10.484;2022-08-16T12:37:32;100990.78;;;35.94;59.37